Time;durP1;ratioP1;P1;durP2;ratioP2;P2;SDS_P1;SDS_P2;PMS_P1;PMS_P2;Temp;Humidity;BMP_temperature;BMP_pressure;BME280_temperature;BME280_humidity;BME280_pressure;Samples;Min_cycle;Max_cycle;Signal;HPM_P1;HPM_P2
2023/03/09 00:01:56;;;;;;;39.15;24.55;;;;;;;-0.41;100.00;98922.47;5075022;28;20036;-69
2023/03/09 00:04:22;;;;;;;40.47;26.00;;;;;;;-0.45;100.00;98911.16;5071652;28;20382;-69
2023/03/09 00:06:48;;;;;;;40.15;25.92;;;;;;;-0.44;100.00;98902.50;5075183;28;20115;-69
2023/03/09 00:09:14;;;;;;;39.33;25.58;;;;;;;-0.44;100.00;98902.50;5075132;28;20117;-68
2023/03/09 00:11:45;;;;;;;40.83;25.70;;;;;;;-0.44;100.00;98894.72;5075407;28;20025;-68
2023/03/09 00:14:10;;;;;;;42.25;26.60;;;;;;;-0.47;100.00;98907.66;5075083;28;20020;-69
2023/03/09 00:16:38;;;;;;;40.95;25.63;;;;;;;-0.45;100.00;98900.78;5073807;28;20083;-68
2023/03/09 00:19:03;;;;;;;40.50;25.92;;;;;;;-0.45;100.00;98868.75;5075380;28;20029;-69
2023/03/09 00:21:48;;;;;;;41.53;27.33;;;;;;;-0.47;100.00;98891.22;5075016;28;20040;-68
2023/03/09 00:24:16;;;;;;;42.33;26.55;;;;;;;-0.47;100.00;98912.84;5075011;28;20104;-68
2023/03/09 00:26:46;;;;;;;42.80;27.33;;;;;;;-0.46;100.00;98929.31;5074808;28;20029;-69
2023/03/09 00:29:12;;;;;;;42.97;27.10;;;;;;;-0.45;100.00;98933.66;5074911;28;20021;-68
2023/03/09 00:31:38;;;;;;;41.88;26.75;;;;;;;-0.47;100.00;98941.41;5074777;28;20453;-69
2023/03/09 00:34:04;;;;;;;43.38;28.02;;;;;;;-0.45;100.00;98944.94;5074819;28;20032;-68
2023/03/09 00:36:30;;;;;;;43.13;27.55;;;;;;;-0.45;100.00;98955.31;5074907;28;20025;-68
2023/03/09 00:38:57;;;;;;;44.00;27.52;;;;;;;-0.43;100.00;98957.94;5074634;28;20108;-68
2023/03/09 00:41:26;;;;;;;42.60;27.33;;;;;;;-0.45;100.00;98952.72;5070593;28;20032;-69
2023/03/09 00:43:52;;;;;;;43.30;26.83;;;;;;;-0.45;100.00;98957.91;5074708;28;20020;-68
2023/03/09 00:46:17;;;;;;;42.78;27.80;;;;;;;-0.43;100.00;98966.59;5074545;28;20115;-68
2023/03/09 00:48:43;;;;;;;43.17;27.23;;;;;;;-0.42;100.00;98962.28;5074383;28;20036;-69
2023/03/09 00:51:09;;;;;;;42.78;26.98;;;;;;;-0.44;100.00;98972.63;5074410;28;20052;-69
2023/03/09 00:53:35;;;;;;;42.60;26.25;;;;;;;-0.44;100.00;98972.63;5074950;28;20029;-68
2023/03/09 00:56:09;;;;;;;40.47;26.17;;;;;;;-0.44;100.00;98967.41;5074326;28;20029;-68
2023/03/09 00:58:34;;;;;;;40.97;26.15;;;;;;;-0.43;100.00;98966.59;5078642;28;20063;-72
2023/03/09 01:01:00;;;;;;;41.88;27.08;;;;;;;-0.40;100.00;98982.22;5077377;28;20463;-68
2023/03/09 01:03:26;;;;;;;41.78;26.30;;;;;;;-0.39;100.00;98991.75;5078523;28;20024;-69
2023/03/09 01:05:52;;;;;;;41.65;26.73;;;;;;;-0.39;100.00;98991.75;5077006;28;20025;-68
2023/03/09 01:08:18;;;;;;;40.20;25.30;;;;;;;-0.40;100.00;99003.00;5076028;28;20025;-70
2023/03/09 01:10:43;;;;;;;40.40;25.45;;;;;;;-0.40;100.00;99007.31;5077698;28;20028;-69
2023/03/09 01:13:10;;;;;;;40.33;25.35;;;;;;;-0.38;100.00;99037.66;5075927;28;20056;-70
2023/03/09 01:15:36;;;;;;;39.97;25.48;;;;;;;-0.42;100.00;99051.44;5075688;28;20036;-69
2023/03/09 01:18:01;;;;;;;39.25;24.85;;;;;;;-0.39;100.00;99050.63;5074689;28;20021;-70
2023/03/09 01:20:26;;;;;;;39.80;24.95;;;;;;;-0.38;100.00;99034.19;5074027;28;20024;-72
2023/03/09 01:22:52;;;;;;;40.92;25.77;;;;;;;-0.38;100.00;99037.66;5073771;28;20037;-73
2023/03/09 01:25:17;;;;;;;41.25;25.95;;;;;;;-0.36;100.00;99035.97;5073754;28;20033;-69
2023/03/09 01:27:42;;;;;;;40.75;25.60;;;;;;;-0.38;100.00;99041.97;5073538;28;20032;-68
2023/03/09 01:30:11;;;;;;;40.40;25.77;;;;;;;-0.38;100.00;99049.75;5073615;28;20056;-69
2023/03/09 01:32:36;;;;;;;41.85;26.35;;;;;;;-0.33;100.00;99055.94;5073587;28;20056;-71
2023/03/09 01:35:03;;;;;;;41.50;26.10;;;;;;;-0.31;100.00;99061.16;5073832;28;20158;-70
2023/03/09 01:37:28;;;;;;;42.78;26.80;;;;;;;-0.34;100.00;99063.69;5073442;28;20479;-71
2023/03/09 01:39:54;;;;;;;41.58;26.10;;;;;;;-0.34;100.00;99063.69;5073414;28;20029;-71
2023/03/09 01:42:19;;;;;;;42.85;26.42;;;;;;;-0.38;100.00;99063.63;5073642;28;20115;-70
2023/03/09 01:44:44;;;;;;;42.05;26.27;;;;;;;-0.33;100.00;99071.50;5073332;28;20025;-71
2023/03/09 01:47:09;;;;;;;41.67;26.98;;;;;;;-0.33;100.00;99068.06;5073551;28;20107;-70
2023/03/09 01:49:41;;;;;;;42.00;26.90;;;;;;;-0.33;100.00;99065.44;5073173;28;20117;-70
2023/03/09 01:52:10;;;;;;;42.53;26.87;;;;;;;-0.31;100.00;99069.81;5072998;28;20425;-71
2023/03/09 01:54:51;;;;;;;44.58;28.08;;;;;;;-0.29;100.00;99075.03;5073087;28;20275;-70
2023/03/09 01:57:36;;;;;;;44.08;28.17;;;;;;;-0.31;100.00;99074.13;5073269;28;20021;-71
2023/03/09 02:00:07;;;;;;;45.03;28.30;;;;;;;-0.31;100.00;99075.00;5070351;28;20036;-71
2023/03/09 02:02:37;;;;;;;45.88;28.48;;;;;;;-0.26;100.00;99088.06;5073207;28;20056;-71
2023/03/09 02:05:09;;;;;;;44.95;28.42;;;;;;;-0.24;100.00;99100.25;5072987;28;20036;-70
2023/03/09 02:07:38;;;;;;;45.80;28.65;;;;;;;-0.25;100.00;99114.09;5073035;28;20031;-71
2023/03/09 02:10:11;;;;;;;46.38;30.17;;;;;;;-0.23;100.00;99116.72;5072996;28;20028;-70
2023/03/09 02:12:39;;;;;;;44.83;28.13;;;;;;;-0.22;100.00;99100.28;5073101;28;20107;-71
2023/03/09 02:15:05;;;;;;;46.80;29.50;;;;;;;-0.25;100.00;99102.81;5072825;28;20031;-71
2023/03/09 02:17:30;;;;;;;46.42;29.33;;;;;;;-0.22;100.00;99092.50;5072864;28;20028;-70
2023/03/09 02:20:13;;;;;;;47.08;29.42;;;;;;;-0.21;100.00;99091.66;5073117;28;20158;-70
2023/03/09 02:22:39;;;;;;;46.83;29.35;;;;;;;-0.24;100.00;99076.00;5070932;28;20028;-70
2023/03/09 02:25:47;;;;;;;46.42;28.75;;;;;;;-0.22;100.00;99101.19;5072986;28;20074;-69
2023/03/09 02:28:13;;;;;;;48.38;29.10;;;;;;;-0.24;100.00;99102.84;5061490;28;20076;-68
2023/03/09 02:30:41;;;;;;;46.10;29.08;;;;;;;-0.20;100.00;99109.88;5072686;28;20064;-68
2023/03/09 02:33:11;;;;;;;47.10;29.38;;;;;;;-0.20;100.00;99106.41;5072693;28;20080;-68
2023/03/09 02:35:37;;;;;;;47.45;29.05;;;;;;;-0.22;100.00;99111.56;5072796;28;20025;-68
2023/03/09 02:38:02;;;;;;;47.67;29.08;;;;;;;-0.19;100.00;99113.31;5071243;28;20036;-68
2023/03/09 02:40:32;;;;;;;47.47;29.48;;;;;;;-0.27;100.00;99131.34;5071869;28;20040;-68
2023/03/09 02:43:00;;;;;;;46.65;28.02;;;;;;;-0.22;100.00;99132.34;5069047;28;20021;-69
2023/03/09 02:45:27;;;;;;;46.28;28.30;;;;;;;-0.22;100.00;99127.16;5068712;28;20020;-68
2023/03/09 02:47:54;;;;;;;48.53;29.48;;;;;;;-0.26;100.00;99132.22;5072519;28;20124;-68
2023/03/09 02:50:19;;;;;;;46.30;28.67;;;;;;;-0.26;100.00;99124.44;5072527;28;20033;-68
2023/03/09 02:52:44;;;;;;;48.28;30.00;;;;;;;-0.30;100.00;99123.50;5072188;28;20048;-68
2023/03/09 02:55:10;;;;;;;47.97;29.42;;;;;;;-0.26;100.00;99125.34;5072335;28;20025;-68
2023/03/09 02:57:35;;;;;;;46.97;28.77;;;;;;;-0.23;100.00;99134.91;5072628;28;20108;-69
2023/03/09 03:00:01;;;;;;;48.55;30.10;;;;;;;-0.27;100.00;99133.09;5072383;28;20035;-69
2023/03/09 03:02:26;;;;;;;47.20;28.75;;;;;;;-0.25;100.00;99126.19;5072346;28;20032;-68
2023/03/09 03:04:52;;;;;;;48.42;29.38;;;;;;;-0.27;100.00;99118.38;5072505;28;20077;-69
2023/03/09 03:07:17;;;;;;;47.60;28.45;;;;;;;-0.27;100.00;99135.69;5072289;28;20032;-68
2023/03/09 03:09:43;;;;;;;48.50;29.63;;;;;;;-0.25;100.00;99137.47;5072262;28;20043;-68
2023/03/09 03:12:08;;;;;;;49.30;30.33;;;;;;;-0.26;100.00;99129.63;5072417;28;20033;-69
2023/03/09 03:14:34;;;;;;;49.25;30.00;;;;;;;-0.30;100.00;99133.03;5072160;28;20043;-68
2023/03/09 03:16:59;;;;;;;50.28;30.52;;;;;;;-0.27;100.00;99130.50;5072367;28;20475;-69
2023/03/09 03:19:25;;;;;;;51.60;29.83;;;;;;;-0.32;100.00;99124.31;5072436;28;20111;-68
2023/03/09 03:21:51;;;;;;;51.17;29.95;;;;;;;-0.30;100.00;99139.09;5072069;28;20032;-68
2023/03/09 03:24:16;;;;;;;50.45;30.70;;;;;;;-0.33;100.00;99139.03;5072346;28;20116;-68
2023/03/09 03:26:42;;;;;;;50.58;30.85;;;;;;;-0.27;100.00;99151.28;5072089;28;20499;-68
2023/03/09 03:29:08;;;;;;;52.28;31.52;;;;;;;-0.29;100.00;99150.34;5072040;28;20036;-69
2023/03/09 03:31:34;;;;;;;50.70;30.50;;;;;;;-0.29;100.00;99148.66;5072313;28;20394;-69
2023/03/09 03:33:59;;;;;;;52.65;30.95;;;;;;;-0.28;100.00;99158.16;5072057;28;20028;-68
2023/03/09 03:36:25;;;;;;;53.08;31.10;;;;;;;-0.25;100.00;99172.94;5067985;28;20020;-68
2023/03/09 03:38:50;;;;;;;53.30;31.80;;;;;;;-0.27;100.00;99195.44;5072140;28;20093;-68
2023/03/09 03:41:16;;;;;;;52.78;31.90;;;;;;;-0.28;100.00;99201.44;5071946;28;20039;-68
2023/03/09 03:43:41;;;;;;;55.20;33.15;;;;;;;-0.28;100.00;99204.06;5071958;28;20075;-69
2023/03/09 03:46:06;;;;;;;54.75;33.10;;;;;;;-0.31;100.00;99207.44;5072097;28;20024;-68
2023/03/09 03:48:32;;;;;;;53.83;32.50;;;;;;;-0.30;100.00;99210.94;5071865;28;20390;-68
2023/03/09 03:50:57;;;;;;;56.83;33.60;;;;;;;-0.31;100.00;99215.25;5072858;28;20490;-71
2023/03/09 03:53:22;;;;;;;55.67;33.53;;;;;;;-0.31;100.00;99210.03;5074328;28;20403;-71
2023/03/09 03:55:48;;;;;;;56.17;34.08;;;;;;;-0.28;100.00;99202.31;5075345;28;20060;-70
2023/03/09 03:58:13;;;;;;;56.92;34.65;;;;;;;-0.28;100.00;99211.84;5075662;28;20100;-71
2023/03/09 04:00:38;;;;;;;59.13;35.22;;;;;;;-0.27;100.00;99213.59;5075370;28;20025;-70
2023/03/09 04:03:04;;;;;;;56.55;34.33;;;;;;;-0.23;100.00;99212.84;5075319;28;20027;-71
2023/03/09 04:05:29;;;;;;;58.88;35.70;;;;;;;-0.20;100.00;99221.56;5075418;28;20036;-70
2023/03/09 04:07:54;;;;;;;57.60;34.10;;;;;;;-0.22;100.00;99214.56;5071079;28;20025;-70
2023/03/09 04:10:20;;;;;;;59.05;34.58;;;;;;;-0.20;100.00;99218.09;5075065;28;20093;-71
2023/03/09 04:12:45;;;;;;;58.72;35.65;;;;;;;-0.22;100.00;99210.28;5075420;28;20384;-71
2023/03/09 04:15:11;;;;;;;59.78;35.35;;;;;;;-0.23;100.00;99231.00;5075164;28;20031;-70
2023/03/09 04:17:36;;;;;;;59.30;35.10;;;;;;;-0.23;100.00;99229.28;5075120;28;20028;-70
2023/03/09 04:20:03;;;;;;;59.42;36.20;;;;;;;-0.20;100.00;99236.28;5075184;28;20035;-70
2023/03/09 04:22:28;;;;;;;59.97;35.20;;;;;;;-0.17;100.00;99238.94;5075057;28;20020;-71
2023/03/09 04:24:54;;;;;;;59.97;34.58;;;;;;;-0.20;100.00;99244.06;5074880;28;20029;-72
2023/03/09 04:27:19;;;;;;;61.97;36.22;;;;;;;-0.23;100.00;99233.63;5075140;28;20032;-71
2023/03/09 04:29:44;;;;;;;63.30;37.38;;;;;;;-0.24;100.00;99247.44;5074741;28;20379;-70
2023/03/09 04:32:10;;;;;;;61.75;36.05;;;;;;;-0.25;100.00;99238.78;5075021;28;20020;-70
2023/03/09 04:34:35;;;;;;;64.80;38.22;;;;;;;-0.23;100.00;99244.00;5074686;28;20040;-71
2023/03/09 04:37:01;;;;;;;61.85;36.00;;;;;;;-0.25;100.00;99250.88;5074930;28;20060;-71
2023/03/09 04:39:26;;;;;;;63.47;37.17;;;;;;;-0.24;100.00;99248.28;5074915;28;20028;-69
2023/03/09 04:41:51;;;;;;;65.75;36.75;;;;;;;-0.23;100.00;99254.41;5074527;28;20033;-73
2023/03/09 04:44:17;;;;;;;66.13;37.58;;;;;;;-0.25;100.00;99264.75;5074582;28;20033;-73
2023/03/09 04:46:42;;;;;;;68.32;36.88;;;;;;;-0.24;100.00;99268.22;5074713;28;20429;-68
2023/03/09 04:49:07;;;;;;;64.97;36.20;;;;;;;-0.21;100.00;99269.13;5074352;28;20029;-70
2023/03/09 04:51:33;;;;;;;64.53;37.35;;;;;;;-0.24;100.00;99271.69;5074114;28;20056;-70
2023/03/09 04:53:58;;;;;;;67.00;38.78;;;;;;;-0.26;100.00;99283.75;5074858;28;20040;-68
2023/03/09 04:56:23;;;;;;;70.38;39.58;;;;;;;-0.23;100.00;99289.03;5074221;28;20036;-68
2023/03/09 04:58:49;;;;;;;67.90;38.25;;;;;;;-0.23;100.00;99288.16;5074307;28;20080;-68
2023/03/09 05:01:14;;;;;;;75.88;40.95;;;;;;;-0.25;100.00;99276.84;5074404;28;20391;-71
2023/03/09 05:03:40;;;;;;;73.13;41.30;;;;;;;-0.24;100.00;99283.78;5073598;28;20189;-70
2023/03/09 05:06:05;;;;;;;72.63;41.55;;;;;;;-0.28;100.00;99298.41;5074201;28;20032;-71
2023/03/09 05:08:31;;;;;;;74.03;40.90;;;;;;;-0.27;100.00;99292.38;5074006;28;20025;-71
2023/03/09 05:10:56;;;;;;;73.82;41.55;;;;;;;-0.28;100.00;99294.94;5074073;28;20025;-68
2023/03/09 05:13:23;;;;;;;76.45;42.97;;;;;;;-0.27;100.00;99309.69;5072861;28;20036;-69
2023/03/09 05:15:48;;;;;;;77.15;42.45;;;;;;;-0.24;100.00;99315.84;5073969;28;20027;-67
2023/03/09 05:18:14;;;;;;;76.57;42.47;;;;;;;-0.21;100.00;99322.81;5073813;28;20033;-68
2023/03/09 05:20:39;;;;;;;79.43;43.92;;;;;;;-0.22;100.00;99328.84;5074014;28;20116;-68
2023/03/09 05:23:05;;;;;;;80.65;44.67;;;;;;;-0.21;100.00;99325.41;5073805;28;20475;-68
2023/03/09 05:25:31;;;;;;;81.43;44.50;;;;;;;-0.25;100.00;99333.97;5073814;28;20036;-69
2023/03/09 05:27:57;;;;;;;82.10;44.60;;;;;;;-0.20;100.00;99337.56;5076094;28;20028;-70
2023/03/09 05:30:23;;;;;;;83.20;45.65;;;;;;;-0.23;100.00;99325.38;5076875;28;20037;-68
2023/03/09 05:32:49;;;;;;;82.57;44.28;;;;;;;-0.21;100.00;99335.81;5077973;28;20044;-68
2023/03/09 05:35:19;;;;;;;79.38;45.42;;;;;;;-0.21;100.00;99328.88;5077810;28;20036;-70
2023/03/09 05:37:45;;;;;;;84.93;47.17;;;;;;;-0.23;100.00;99332.31;5077049;28;20036;-68
2023/03/09 05:40:17;;;;;;;82.03;46.30;;;;;;;-0.24;100.00;99331.41;5077206;28;20115;-68
2023/03/09 05:42:42;;;;;;;83.72;46.88;;;;;;;-0.24;100.00;99335.75;5077326;28;20025;-69
2023/03/09 05:45:09;;;;;;;79.22;45.33;;;;;;;-0.26;100.00;99330.50;5075617;28;20017;-70
2023/03/09 05:47:34;;;;;;;78.47;45.05;;;;;;;-0.27;100.00;99322.69;5074624;28;20020;-69
2023/03/09 05:50:00;;;;;;;77.28;44.85;;;;;;;-0.30;100.00;99315.69;5073459;28;20090;-72
2023/03/09 05:52:25;;;;;;;79.68;45.42;;;;;;;-0.32;100.00;99321.69;5073129;28;20499;-70
2023/03/09 05:54:51;;;;;;;79.45;44.20;;;;;;;-0.34;100.00;99333.78;5073055;28;20472;-70
2023/03/09 05:57:16;;;;;;;79.25;44.78;;;;;;;-0.33;100.00;99335.53;5073350;28;20364;-71
2023/03/09 05:59:42;;;;;;;80.55;44.45;;;;;;;-0.28;100.00;99352.09;5073074;28;20234;-68
2023/03/09 06:02:08;;;;;;;80.20;45.85;;;;;;;-0.28;100.00;99359.88;5073048;28;20056;-70
2023/03/09 06:04:34;;;;;;;86.53;47.22;;;;;;;-0.26;100.00;99358.19;5073369;28;20103;-69
2023/03/09 06:06:59;;;;;;;81.22;44.95;;;;;;;-0.25;100.00;99354.75;5072976;28;20078;-70
2023/03/09 06:09:25;;;;;;;79.18;45.03;;;;;;;-0.24;100.00;99364.31;5072777;28;20033;-71
2023/03/09 06:11:51;;;;;;;81.82;46.22;;;;;;;-0.21;100.00;99362.66;5073140;28;20082;-70
2023/03/09 06:14:16;;;;;;;79.60;44.50;;;;;;;-0.22;100.00;99355.72;5072034;28;20111;-68
2023/03/09 06:16:42;;;;;;;80.88;44.70;;;;;;;-0.24;100.00;99346.13;5072942;28;20064;-69
2023/03/09 06:19:07;;;;;;;78.03;45.88;;;;;;;-0.23;100.00;99371.28;5073339;28;20467;-68
2023/03/09 06:21:33;;;;;;;79.18;44.92;;;;;;;-0.20;100.00;99374.81;5073686;28;20505;-68
2023/03/09 06:23:58;;;;;;;77.10;44.83;;;;;;;-0.14;100.00;99379.28;5074092;28;20115;-69
2023/03/09 06:26:24;;;;;;;79.82;45.00;;;;;;;-0.12;100.00;99374.97;5073567;28;20056;-68
2023/03/09 06:28:50;;;;;;;76.40;43.78;;;;;;;-0.13;100.00;99381.03;5072608;28;20028;-68
2023/03/09 06:31:16;;;;;;;75.80;43.33;;;;;;;-0.13;100.00;99391.44;5072919;28;20032;-68
2023/03/09 06:33:43;;;;;;;77.35;44.17;;;;;;;-0.09;100.00;99389.78;5072658;28;20039;-69
2023/03/09 06:36:10;;;;;;;74.80;43.53;;;;;;;-0.01;100.00;99390.84;5072601;28;20028;-68
2023/03/09 06:38:35;;;;;;;75.28;43.15;;;;;;;0.04;100.00;99398.75;5072651;28;20071;-68
2023/03/09 06:41:01;;;;;;;73.05;42.95;;;;;;;0.05;100.00;99403.13;5072559;28;20028;-68
2023/03/09 06:43:26;;;;;;;71.15;42.10;;;;;;;0.09;100.00;99402.34;5068427;28;20020;-68
2023/03/09 06:45:52;;;;;;;75.18;43.65;;;;;;;0.13;100.00;99405.06;5071417;28;20033;-68
2023/03/09 06:48:17;;;;;;;70.70;43.30;;;;;;;0.11;100.00;99413.66;5068075;28;20033;-70
2023/03/09 06:50:43;;;;;;;69.88;42.28;;;;;;;0.12;100.00;99418.88;5069272;28;20059;-76
2023/03/09 06:53:09;;;;;;;72.53;42.85;;;;;;;0.11;100.00;99417.13;5062824;28;20045;-67
2023/03/09 06:55:36;;;;;;;71.20;42.95;;;;;;;0.17;100.00;99426.78;5066306;28;20084;-75
2023/03/09 06:58:01;;;;;;;73.60;42.83;;;;;;;0.17;100.00;99442.38;5065858;28;20455;-72
2023/03/09 07:00:27;;;;;;;69.38;41.20;;;;;;;0.19;100.00;99438.09;5072010;28;20166;-72
2023/03/09 07:02:52;;;;;;;71.20;42.80;;;;;;;0.21;100.00;99444.22;5080126;28;20032;-74
2023/03/09 07:05:18;;;;;;;69.68;41.38;;;;;;;0.21;100.00;99456.34;5064033;28;20496;-69
2023/03/09 07:07:43;;;;;;;65.97;41.22;;;;;;;0.27;100.00;99464.28;5063083;28;20396;-71
2023/03/09 07:10:10;;;;;;;67.53;40.95;;;;;;;0.30;100.00;99474.75;5065274;28;20471;-76
2023/03/09 07:12:36;;;;;;;67.78;41.72;;;;;;;0.29;100.00;99475.56;5076793;28;20032;-74
2023/03/09 07:15:01;;;;;;;68.05;41.15;;;;;;;0.29;100.00;99488.56;5067176;28;20044;-77
2023/03/09 07:17:27;;;;;;;67.40;40.28;;;;;;;0.29;100.00;99492.06;5071393;28;20024;-78
2023/03/09 07:19:53;;;;;;;65.75;40.78;;;;;;;0.34;100.00;99500.84;5066431;28;20116;-73
2023/03/09 07:22:18;;;;;;;77.13;44.67;;;;;;;0.35;100.00;99504.34;5059490;28;20096;-75
2023/03/09 07:24:43;;;;;;;71.57;42.50;;;;;;;0.35;100.00;99504.34;5073408;28;20039;-75
2023/03/09 07:27:09;;;;;;;67.13;41.38;;;;;;;0.40;100.00;99501.84;5069081;28;20035;-77
2023/03/09 07:29:34;;;;;;;65.40;38.90;;;;;;;0.45;100.00;99505.41;5075357;28;20025;-75
2023/03/09 07:32:03;;;;;;;66.50;38.83;;;;;;;0.43;100.00;99507.13;5069497;28;20476;-73
2023/03/09 07:34:31;;;;;;;64.03;39.65;;;;;;;0.42;100.00;99514.03;5074281;28;20025;-75
2023/03/09 07:36:57;;;;;;;65.60;38.90;;;;;;;0.49;100.00;99517.66;5071934;28;20021;-75
2023/03/09 07:39:22;;;;;;;62.45;37.15;;;;;;;0.52;100.00;99523.84;5074554;28;20040;-77
2023/03/09 07:41:48;;;;;;;63.50;38.47;;;;;;;0.64;100.00;99528.44;5077566;28;20475;-79
2023/03/09 07:44:13;;;;;;;63.28;39.92;;;;;;;0.69;100.00;99545.00;5081128;28;21213;-73
2023/03/09 07:46:38;;;;;;;61.28;38.33;;;;;;;0.69;100.00;99536.34;5075252;28;20111;-74
2023/03/09 07:49:04;;;;;;;62.45;37.80;;;;;;;0.69;100.00;99546.75;5068961;28;20044;-78
2023/03/09 07:51:29;;;;;;;61.90;38.75;;;;;;;0.68;100.00;99539.78;5069809;28;20033;-77
2023/03/09 07:53:55;;;;;;;60.00;38.17;;;;;;;0.74;100.00;99546.84;5070334;28;20032;-75
2023/03/09 07:56:20;;;;;;;64.05;37.97;;;;;;;0.76;100.00;99547.75;5071892;28;20082;-73
2023/03/09 07:58:46;;;;;;;62.10;37.05;;;;;;;0.81;100.00;99530.53;5075939;28;20039;-73
2023/03/09 08:01:16;;;;;;;57.22;35.33;;;;;;;0.85;100.00;99541.03;5063529;28;20419;-74
2023/03/09 08:03:43;;;;;;;57.67;35.75;;;;;;;0.87;100.00;99546.28;5069365;28;20012;-74
2023/03/09 08:06:09;;;;;;;58.30;36.28;;;;;;;0.91;100.00;99552.47;5066420;28;20486;-73
2023/03/09 08:08:36;;;;;;;55.38;34.28;;;;;;;0.98;100.00;99555.22;5070757;28;20087;-74
2023/03/09 08:11:03;;;;;;;57.22;35.15;;;;;;;0.99;100.00;99564.78;5068866;28;20490;-74
2023/03/09 08:13:28;;;;;;;58.40;35.60;;;;;;;1.01;100.00;99565.69;5071698;28;20024;-73
2023/03/09 08:15:53;;;;;;;55.70;34.58;;;;;;;1.06;100.00;99567.53;5071034;28;20056;-71
2023/03/09 08:18:19;;;;;;;56.65;35.10;;;;;;;1.06;100.00;99567.53;5064450;28;20037;-68
2023/03/09 08:20:45;;;;;;;57.92;35.47;;;;;;;1.15;100.00;99585.94;5067469;28;20040;-66
2023/03/09 08:23:11;;;;;;;56.00;34.95;;;;;;;1.23;100.00;99589.59;5073817;28;20078;-70
2023/03/09 08:25:37;;;;;;;55.70;35.05;;;;;;;1.23;100.00;99584.41;5076634;28;20029;-71
2023/03/09 08:28:03;;;;;;;55.47;34.47;;;;;;;1.25;100.00;99585.28;5070439;28;20024;-68
2023/03/09 08:30:29;;;;;;;56.03;34.90;;;;;;;1.29;100.00;99581.06;5074927;28;20097;-67
2023/03/09 08:32:55;;;;;;;53.03;34.05;;;;;;;1.31;100.00;99580.25;5074782;28;20028;-69
2023/03/09 08:35:22;;;;;;;54.95;34.38;;;;;;;1.38;100.00;99592.56;5074471;28;20059;-68
2023/03/09 08:37:48;;;;;;;53.72;33.80;;;;;;;1.37;100.00;99601.22;5073622;28;20028;-69
2023/03/09 08:40:14;;;;;;;55.10;34.80;;;;;;;1.37;100.00;99605.53;5074414;28;20040;-68
2023/03/09 08:42:40;;;;;;;54.78;34.53;;;;;;;1.42;100.00;99618.66;5074617;28;20020;-68
2023/03/09 08:45:07;;;;;;;54.50;34.65;;;;;;;1.41;100.00;99612.56;5074741;28;20040;-67
2023/03/09 08:47:33;;;;;;;55.67;35.22;;;;;;;1.44;100.00;99607.41;5074611;28;20035;-67
2023/03/09 08:49:58;;;;;;;55.03;34.28;;;;;;;1.43;100.00;99607.38;5074338;28;20021;-67
2023/03/09 08:52:24;;;;;;;55.78;33.42;;;;;;;1.59;100.00;99609.47;5074443;28;20048;-67
2023/03/09 08:54:55;;;;;;;52.55;32.17;;;;;;;1.68;100.00;99617.47;5074352;28;20111;-68
2023/03/09 08:57:23;;;;;;;54.85;33.53;;;;;;;1.69;100.00;99627.06;5074220;28;20028;-67
2023/03/09 08:59:48;;;;;;;50.33;32.28;;;;;;;1.65;100.00;99633.06;5074506;28;20029;-67
2023/03/09 09:02:14;;;;;;;51.40;32.47;;;;;;;1.65;100.00;99629.56;5074394;28;20078;-67
2023/03/09 09:04:43;;;;;;;50.83;32.35;;;;;;;1.58;100.00;99633.78;5074175;28;20029;-67
2023/03/09 09:07:10;;;;;;;50.90;31.85;;;;;;;1.64;100.00;99649.53;5074329;28;20052;-67
2023/03/09 09:09:36;;;;;;;53.15;32.85;;;;;;;1.64;100.00;99652.13;5073959;28;20036;-68
2023/03/09 09:12:01;;;;;;;51.53;31.80;;;;;;;1.62;100.00;99648.63;5074285;28;20426;-67
2023/03/09 09:14:27;;;;;;;49.78;31.73;;;;;;;1.55;100.00;99660.63;5074119;28;20028;-67
2023/03/09 09:16:52;;;;;;;52.10;31.85;;;;;;;1.55;100.00;99655.41;5072810;28;20024;-67
2023/03/09 09:19:18;;;;;;;52.28;31.45;;;;;;;1.66;100.00;99660.88;5073892;28;20063;-67
2023/03/09 09:21:44;;;;;;;50.25;31.88;;;;;;;1.64;100.00;99662.56;5074059;28;20028;-67
2023/03/09 09:24:09;;;;;;;51.40;31.80;;;;;;;1.85;100.00;99640.38;5073808;28;20174;-67
2023/03/09 09:26:34;;;;;;;51.88;32.55;;;;;;;1.98;100.00;99632.00;5073716;28;20056;-67
2023/03/09 09:29:01;;;;;;;51.15;31.38;;;;;;;2.14;100.00;99653.13;5073814;28;20036;-67
2023/03/09 09:31:27;;;;;;;50.47;31.45;;;;;;;2.25;100.00;99654.22;5073530;28;20032;-70
2023/03/09 09:33:53;;;;;;;49.70;30.65;;;;;;;2.29;100.00;99653.44;5073670;28;20050;-67
2023/03/09 09:36:19;;;;;;;49.00;30.70;;;;;;;2.29;100.00;99643.00;5073834;28;20024;-70
2023/03/09 09:38:45;;;;;;;49.47;31.38;;;;;;;2.40;100.00;99658.84;5064953;28;20116;-72
2023/03/09 09:41:16;;;;;;;46.40;29.80;;;;;;;2.45;100.00;99675.47;5073267;28;20020;-71
2023/03/09 09:43:43;;;;;;;47.97;30.50;;;;;;;2.44;100.00;99669.34;5071225;28;20024;-74
2023/03/09 09:46:12;;;;;;;47.30;29.15;;;;;;;2.31;100.00;99672.59;5063739;28;20098;-76
2023/03/09 09:48:41;;;;;;;48.63;30.55;;;;;;;2.12;100.00;99675.69;5069677;28;20104;-72
2023/03/09 09:51:33;;;;;;;49.50;30.63;;;;;;;2.09;100.00;99682.59;5069582;28;20025;-72
2023/03/09 09:54:36;;;;;;;51.15;32.50;;;;;;;2.16;100.00;99670.56;5026221;28;20046;-76
2023/03/09 09:57:08;;;;;;;50.53;31.95;;;;;;;2.18;100.00;99668.84;5029747;28;20045;-73
2023/03/09 09:59:44;;;;;;;51.92;32.33;;;;;;;2.21;100.00;99660.22;5024318;28;20052;-72
2023/03/09 10:02:10;;;;;;;50.90;32.33;;;;;;;2.25;100.00;99673.34;5027930;28;20037;-72
2023/03/09 10:04:46;;;;;;;49.97;32.60;;;;;;;2.30;100.00;99669.94;5030645;28;20037;-72
2023/03/09 10:07:21;;;;;;;51.03;31.75;;;;;;;2.28;100.00;99675.16;5028764;28;20103;-72
2023/03/09 10:09:52;;;;;;;51.25;32.53;;;;;;;2.41;100.00;99674.53;5025498;28;20025;-73
2023/03/09 10:12:17;;;;;;;50.17;31.55;;;;;;;2.46;100.00;99684.16;5021700;28;20112;-70
2023/03/09 10:14:51;;;;;;;49.28;31.75;;;;;;;2.53;100.00;99679.06;5033248;28;20169;-72
2023/03/09 10:17:26;;;;;;;52.10;33.38;;;;;;;2.56;100.00;99684.38;5031462;28;20495;-73
2023/03/09 10:19:51;;;;;;;49.47;31.48;;;;;;;2.56;100.00;99680.88;5028229;28;20075;-72
2023/03/09 10:22:25;;;;;;;50.15;32.70;;;;;;;2.61;100.00;99679.25;5024706;28;20579;-74
2023/03/09 10:24:52;;;;;;;50.40;32.50;;;;;;;2.66;100.00;99680.19;5030030;28;20033;-74
2023/03/09 10:27:35;;;;;;;49.13;31.92;;;;;;;2.80;100.00;99677.84;5027374;28;20025;-70
2023/03/09 10:30:07;;;;;;;49.95;32.63;;;;;;;3.23;100.00;99668.09;5031480;28;20120;-72
2023/03/09 10:32:52;;;;;;;48.45;30.77;;;;;;;3.39;100.00;99673.53;5032738;28;20041;-72
2023/03/09 10:35:29;;;;;;;47.45;31.67;;;;;;;3.36;100.00;99663.03;5026960;28;20248;-68
2023/03/09 10:37:55;;;;;;;47.97;30.90;;;;;;;3.41;100.00;99657.03;5028780;28;20032;-70
2023/03/09 10:40:29;;;;;;;46.17;29.58;;;;;;;3.43;100.00;99664.88;5024581;28;20033;-70
2023/03/09 10:42:57;;;;;;;44.67;28.25;;;;;;;3.48;100.00;99671.94;5030650;28;20484;-70
2023/03/09 10:45:24;;;;;;;48.03;29.85;;;;;;;3.46;100.00;99676.25;5031328;28;20029;-71
2023/03/09 10:47:49;;;;;;;45.47;28.08;;;;;;;3.61;100.00;99674.72;5029701;28;20428;-70
2023/03/09 10:50:15;;;;;;;44.65;28.52;;;;;;;3.73;100.00;99685.34;5028001;28;20029;-69
2023/03/09 10:52:41;;;;;;;44.58;28.55;;;;;;;3.77;100.00;99675.81;5044992;28;20408;-69
2023/03/09 10:55:36;;;;;;;45.25;28.42;;;;;;;3.87;100.00;99676.81;5070298;28;20047;-69
2023/03/09 10:58:13;;;;;;;45.22;28.45;;;;;;;3.91;100.00;99676.00;5072283;28;20032;-68
2023/03/09 11:00:48;;;;;;;43.53;28.17;;;;;;;4.12;100.00;99670.13;5065777;28;20475;-70
2023/03/09 11:03:23;;;;;;;45.03;28.52;;;;;;;4.39;100.00;99676.56;5074934;28;20476;-68
2023/03/09 11:05:48;;;;;;;43.00;27.50;;;;;;;4.45;100.00;99672.25;5071041;28;20031;-69
2023/03/09 11:08:26;;;;;;;43.22;27.42;;;;;;;4.55;100.00;99668.00;5074208;28;20488;-69
2023/03/09 11:11:05;;;;;;;41.65;26.10;;;;;;;4.49;100.00;99681.91;5076591;28;20032;-69
2023/03/09 11:13:31;;;;;;;42.17;27.05;;;;;;;4.24;100.00;99672.91;5072105;28;20020;-69